Time;durP1;ratioP1;P1;durP2;ratioP2;P2;SDS_P1;SDS_P2;PMS_P1;PMS_P2;Temp;Humidity;BMP_temperature;BMP_pressure;BME280_temperature;BME280_humidity;BME280_pressure;Samples;Min_cycle;Max_cycle;Signal;HPM_P1;HPM_P2
2022/04/01 00:02:03;;;;;;;16.17;14.47;;;2.20;99.90;;;;;;5076676;28;20166;-63
2022/04/01 00:04:29;;;;;;;18.83;14.27;;;2.20;99.90;;;;;;5076612;28;20185;-62
2022/04/01 00:06:55;;;;;;;16.23;14.27;;;2.20;99.90;;;;;;5076812;28;20197;-64
2022/04/01 00:09:20;;;;;;;15.53;13.90;;;2.20;99.90;;;;;;5076128;28;20253;-63
2022/04/01 00:11:46;;;;;;;15.80;13.90;;;2.20;99.90;;;;;;5077601;28;20641;-63
2022/04/01 00:14:12;;;;;;;17.47;13.77;;;2.20;99.90;;;;;;5077295;28;20251;-64
2022/04/01 00:16:37;;;;;;;14.93;13.33;;;2.20;99.90;;;;;;5077019;28;20208;-63
2022/04/01 00:19:05;;;;;;;16.17;14.07;;;2.10;99.90;;;;;;5076404;28;20702;-63
2022/04/01 00:21:31;;;;;;;15.17;13.20;;;2.10;99.90;;;;;;5078489;28;20649;-63
2022/04/01 00:23:56;;;;;;;15.83;14.17;;;2.20;99.90;;;;;;5077578;28;20665;-63
2022/04/01 00:26:22;;;;;;;14.67;13.17;;;2.20;99.90;;;;;;5070239;28;20206;-63
2022/04/01 00:28:48;;;;;;;15.37;13.57;;;2.20;99.90;;;;;;5074291;28;20182;-64
2022/04/01 00:31:14;;;;;;;16.30;13.70;;;2.20;99.90;;;;;;5076142;28;20515;-64
2022/04/01 00:33:40;;;;;;;16.67;12.53;;;2.20;99.90;;;;;;5075604;28;20707;-63
2022/04/01 00:36:06;;;;;;;15.07;12.77;;;2.10;99.90;;;;;;5076499;28;20560;-63
2022/04/01 00:38:32;;;;;;;15.07;13.30;;;2.10;99.90;;;;;;5075861;28;20181;-63
2022/04/01 00:40:59;;;;;;;16.10;12.90;;;2.10;99.90;;;;;;5074829;28;20180;-63
2022/04/01 00:43:34;;;;;;;13.20;11.83;;;2.20;99.90;;;;;;5075923;28;20253;-64
2022/04/01 00:45:59;;;;;;;15.67;12.43;;;2.10;99.90;;;;;;5076205;28;20214;-64
2022/04/01 00:48:26;;;;;;;14.63;12.70;;;2.10;99.90;;;;;;5075812;28;20543;-64
2022/04/01 00:50:53;;;;;;;14.90;13.00;;;2.10;99.90;;;;;;5075845;28;20195;-64
2022/04/01 00:53:20;;;;;;;16.67;13.43;;;2.10;99.90;;;;;;5075696;28;20181;-64
2022/04/01 00:55:47;;;;;;;16.00;12.70;;;2.00;99.90;;;;;;5074375;28;20241;-64
2022/04/01 00:58:13;;;;;;;14.63;13.10;;;2.00;99.90;;;;;;5068620;28;20255;-64
2022/04/01 01:00:39;;;;;;;14.13;12.70;;;2.00;99.90;;;;;;5075661;28;20162;-64
2022/04/01 01:03:05;;;;;;;16.10;12.93;;;2.00;99.90;;;;;;5075558;28;20180;-64
2022/04/01 01:05:31;;;;;;;14.33;12.83;;;2.00;99.90;;;;;;5075527;28;20177;-63
2022/04/01 01:07:58;;;;;;;13.77;12.37;;;2.00;99.90;;;;;;5075277;28;20205;-64
2022/04/01 01:10:24;;;;;;;15.00;13.27;;;2.00;99.90;;;;;;5074994;28;20204;-64
2022/04/01 01:12:51;;;;;;;14.60;13.10;;;2.00;99.90;;;;;;5075724;28;20174;-64
2022/04/01 01:15:18;;;;;;;13.43;12.03;;;2.00;99.90;;;;;;5075207;28;20209;-64
2022/04/01 01:17:45;;;;;;;13.67;12.27;;;1.90;99.90;;;;;;5075284;28;20280;-64
2022/04/01 01:20:15;;;;;;;14.30;12.30;;;1.90;99.90;;;;;;5075289;28;20166;-64
2022/04/01 01:22:42;;;;;;;13.83;12.33;;;1.80;99.90;;;;;;5075536;28;20626;-63
2022/04/01 01:25:10;;;;;;;16.00;13.20;;;1.90;99.90;;;;;;5074961;28;20181;-64
2022/04/01 01:27:36;;;;;;;12.80;11.33;;;1.90;99.90;;;;;;5066323;28;20298;-63
2022/04/01 01:30:05;;;;;;;14.97;12.50;;;1.90;99.90;;;;;;5075149;28;20634;-64
2022/04/01 01:32:32;;;;;;;12.83;11.47;;;1.90;99.90;;;;;;5074019;28;20190;-64
2022/04/01 01:34:59;;;;;;;12.73;11.53;;;1.80;99.90;;;;;;5074964;28;20190;-63
2022/04/01 01:37:25;;;;;;;15.10;10.80;;;1.90;99.90;;;;;;5075064;28;20662;-63
2022/04/01 01:39:51;;;;;;;12.00;10.53;;;1.80;99.90;;;;;;5074629;28;20186;-64
2022/04/01 01:42:18;;;;;;;11.10;9.97;;;1.80;99.90;;;;;;5073468;28;20557;-63
2022/04/01 01:44:44;;;;;;;11.50;10.33;;;1.80;99.90;;;;;;5074206;28;20650;-63
2022/04/01 01:47:10;;;;;;;12.23;10.50;;;1.80;99.90;;;;;;5074149;28;20217;-64
2022/04/01 01:49:35;;;;;;;12.40;10.93;;;1.70;99.90;;;;;;5074500;28;20216;-64
2022/04/01 01:55:00;;;;;;;11.77;10.63;;;1.60;99.90;;;;;;5062014;28;20248;-63
2022/04/01 01:57:27;;;;;;;11.33;10.23;;;1.70;99.90;;;;;;5065698;28;20229;-64
2022/04/01 01:59:54;;;;;;;11.60;10.37;;;1.60;99.90;;;;;;5074408;28;20166;-64
2022/04/01 02:02:21;;;;;;;11.50;10.23;;;1.70;99.90;;;;;;5074435;28;20174;-64
2022/04/01 02:04:47;;;;;;;10.60;9.63;;;1.70;99.90;;;;;;5075016;28;20214;-63
2022/04/01 02:07:13;;;;;;;13.07;9.77;;;1.70;99.90;;;;;;5074244;28;20197;-64
2022/04/01 02:09:46;;;;;;;11.67;9.63;;;1.70;99.90;;;;;;5073833;28;20189;-64
2022/04/01 02:12:12;;;;;;;11.87;9.73;;;1.80;99.90;;;;;;5074461;28;20684;-63
2022/04/01 02:14:38;;;;;;;14.43;10.73;;;1.80;99.90;;;;;;5074006;28;20178;-64
2022/04/01 02:17:04;;;;;;;10.43;9.10;;;1.70;99.90;;;;;;5074085;28;20212;-63
2022/04/01 02:19:31;;;;;;;12.33;11.10;;;1.60;99.90;;;;;;5074424;28;20154;-64
2022/04/01 02:21:57;;;;;;;10.30;9.30;;;1.70;99.90;;;;;;5074265;28;20174;-64
2022/04/01 02:24:24;;;;;;;11.77;9.90;;;1.60;99.90;;;;;;5074272;28;20677;-64
2022/04/01 02:26:51;;;;;;;11.50;10.00;;;1.70;99.90;;;;;;5065248;28;20207;-64
2022/04/01 02:29:19;;;;;;;10.53;9.53;;;1.70;99.90;;;;;;5074246;28;20196;-64
2022/04/01 02:31:46;;;;;;;10.77;9.77;;;1.70;99.90;;;;;;5073728;28;20182;-64
2022/04/01 02:34:12;;;;;;;10.77;9.67;;;1.70;99.90;;;;;;5073855;28;20219;-63
2022/04/01 02:36:38;;;;;;;10.80;9.70;;;1.60;99.90;;;;;;5073664;28;20716;-64
2022/04/01 02:39:05;;;;;;;10.80;9.70;;;1.60;99.90;;;;;;5073674;28;20166;-63
2022/04/01 02:41:31;;;;;;;11.73;9.77;;;1.60;99.90;;;;;;5073694;28;20180;-64
2022/04/01 02:44:12;;;;;;;12.87;9.70;;;1.60;99.90;;;;;;5073738;28;20269;-65
2022/04/01 02:46:43;;;;;;;11.07;9.40;;;1.60;99.90;;;;;;5074041;28;20197;-64
2022/04/01 02:49:11;;;;;;;10.50;9.50;;;1.60;99.90;;;;;;5073917;28;20207;-63
2022/04/01 02:51:40;;;;;;;10.90;9.87;;;1.60;99.90;;;;;;5073922;28;20260;-63
2022/04/01 02:54:06;;;;;;;10.50;9.50;;;1.60;99.90;;;;;;5073428;28;20177;-65
2022/04/01 02:56:35;;;;;;;10.20;9.33;;;1.60;99.90;;;;;;5065399;28;20210;-64
2022/04/01 02:59:02;;;;;;;11.53;10.43;;;1.60;99.90;;;;;;5073295;28;20189;-65
2022/04/01 03:01:29;;;;;;;11.53;10.33;;;1.60;99.90;;;;;;5074137;28;20166;-63
2022/04/01 03:03:55;;;;;;;11.77;10.60;;;1.60;99.90;;;;;;5073417;28;20166;-64
2022/04/01 03:06:21;;;;;;;11.27;10.07;;;1.60;99.90;;;;;;5073282;28;20197;-64
2022/04/01 03:08:48;;;;;;;10.40;9.30;;;1.60;99.90;;;;;;5073041;28;20177;-64
2022/04/01 03:11:13;;;;;;;11.57;10.57;;;1.50;99.90;;;;;;5073212;28;20233;-64
2022/04/01 03:13:39;;;;;;;12.00;9.37;;;1.50;99.90;;;;;;5072001;28;20189;-64
2022/04/01 03:16:05;;;;;;;10.33;9.43;;;1.50;99.90;;;;;;5073439;28;20201;-64
2022/04/01 03:18:31;;;;;;;10.87;9.87;;;1.50;99.90;;;;;;5073235;28;20239;-64
2022/04/01 03:20:56;;;;;;;10.47;9.47;;;1.50;99.90;;;;;;5073296;28;20677;-64
2022/04/01 03:23:22;;;;;;;10.83;9.83;;;1.50;99.90;;;;;;5073793;28;20166;-64
2022/04/01 03:25:49;;;;;;;10.93;9.70;;;1.50;99.90;;;;;;5071294;28;20182;-63
2022/04/01 03:28:14;;;;;;;12.17;10.87;;;1.50;99.90;;;;;;5066393;28;20292;-63
2022/04/01 03:30:40;;;;;;;11.47;10.37;;;1.50;99.90;;;;;;5073172;28;20208;-63
2022/04/01 03:33:06;;;;;;;10.67;9.67;;;1.50;99.90;;;;;;5071865;28;20278;-64
2022/04/01 03:35:32;;;;;;;10.63;9.63;;;1.50;99.90;;;;;;5072125;28;20678;-64
2022/04/01 03:37:59;;;;;;;11.07;9.97;;;1.50;99.90;;;;;;5073119;28;20231;-63
2022/04/01 03:40:29;;;;;;;10.13;9.30;;;1.50;99.90;;;;;;5072872;28;20170;-63
2022/04/01 03:42:55;;;;;;;10.37;9.37;;;1.60;99.90;;;;;;5073304;28;20166;-63
2022/04/01 03:45:22;;;;;;;10.57;9.10;;;1.50;99.90;;;;;;5073164;28;20177;-63
2022/04/01 03:47:52;;;;;;;11.20;10.10;;;1.50;99.90;;;;;;5073236;28;20190;-63
2022/04/01 03:50:27;;;;;;;10.53;9.53;;;1.50;99.90;;;;;;5072957;28;20709;-63
2022/04/01 03:53:00;;;;;;;10.70;9.37;;;1.50;99.90;;;;;;5073275;28;20169;-63
2022/04/01 03:55:34;;;;;;;10.93;9.83;;;1.50;99.90;;;;;;5072785;28;20200;-63
2022/04/01 03:58:12;;;;;;;10.30;9.40;;;1.50;99.90;;;;;;5064073;28;20552;-63
2022/04/01 04:00:41;;;;;;;10.40;9.50;;;1.50;99.90;;;;;;5073528;28;20547;-63
2022/04/01 04:03:09;;;;;;;10.40;9.40;;;1.40;99.90;;;;;;5071580;28;20181;-64
2022/04/01 04:05:38;;;;;;;10.77;9.73;;;1.40;99.90;;;;;;5072945;28;20180;-63
2022/04/01 04:08:06;;;;;;;10.60;9.70;;;1.40;99.90;;;;;;5072760;28;20198;-63
2022/04/01 04:10:34;;;;;;;11.00;10.00;;;1.40;99.90;;;;;;5076085;28;20185;-63
2022/04/01 04:13:04;;;;;;;10.40;9.50;;;1.50;99.90;;;;;;5076730;28;20536;-63
2022/04/01 04:15:40;;;;;;;10.57;9.53;;;1.40;99.90;;;;;;5076640;28;20221;-63
2022/04/01 04:18:11;;;;;;;10.70;9.70;;;1.40;99.90;;;;;;5076390;28;20743;-63
2022/04/01 04:20:51;;;;;;;11.47;10.33;;;1.50;99.90;;;;;;5076891;28;20154;-63
2022/04/01 04:23:23;;;;;;;10.30;9.37;;;1.40;99.90;;;;;;5076699;28;20185;-63
2022/04/01 04:26:00;;;;;;;10.87;9.77;;;1.40;99.90;;;;;;5074033;28;20167;-62
2022/04/01 04:28:26;;;;;;;11.57;10.47;;;1.40;99.90;;;;;;5071370;28;20173;-63
2022/04/01 04:31:02;;;;;;;11.33;9.53;;;1.40;99.90;;;;;;5076766;28;20218;-63
2022/04/01 04:33:31;;;;;;;10.40;9.40;;;1.40;99.90;;;;;;5076451;28;20154;-63
2022/04/01 04:36:05;;;;;;;11.83;10.73;;;1.30;99.90;;;;;;5076031;28;20197;-63
2022/04/01 04:38:39;;;;;;;11.40;9.30;;;1.30;99.90;;;;;;5076087;28;20199;-65
2022/04/01 04:41:08;;;;;;;10.63;9.73;;;1.30;99.90;;;;;;5075854;28;20145;-63
2022/04/01 04:43:41;;;;;;;11.10;10.20;;;1.40;99.90;;;;;;5076487;28;20575;-63
2022/04/01 04:46:08;;;;;;;10.97;9.87;;;1.40;99.90;;;;;;5076104;28;20182;-63
2022/04/01 04:48:35;;;;;;;10.43;9.53;;;1.30;99.90;;;;;;5076165;28;20539;-63
2022/04/01 04:51:05;;;;;;;9.47;8.67;;;1.40;99.90;;;;;;5075772;28;20170;-64
2022/04/01 04:53:34;;;;;;;9.97;9.07;;;1.30;99.90;;;;;;5076426;28;20568;-62
2022/04/01 04:56:02;;;;;;;10.30;9.40;;;1.30;99.90;;;;;;5071873;28;20611;-65
2022/04/01 04:58:39;;;;;;;10.70;9.70;;;1.30;99.90;;;;;;5070780;28;20180;-63
2022/04/01 05:01:34;;;;;;;9.87;8.87;;;1.40;99.90;;;;;;5074449;28;20168;-63
2022/04/01 05:04:12;;;;;;;9.83;9.03;;;1.40;99.90;;;;;;5075794;28;20174;-63
2022/04/01 05:06:53;;;;;;;10.13;9.23;;;1.40;99.90;;;;;;5075336;28;20665;-63
2022/04/01 05:09:37;;;;;;;11.10;10.10;;;1.40;99.90;;;;;;5075327;28;20493;-64
2022/04/01 05:12:16;;;;;;;10.63;9.63;;;1.30;99.90;;;;;;5075696;28;20626;-63
2022/04/01 05:15:01;;;;;;;11.53;10.43;;;1.30;99.90;;;;;;5075414;28;20158;-62
2022/04/01 05:17:33;;;;;;;11.17;10.17;;;1.30;99.90;;;;;;5075307;28;20201;-63
2022/04/01 05:20:01;;;;;;;12.47;11.23;;;1.30;99.90;;;;;;5075431;28;20150;-63
2022/04/01 05:22:45;;;;;;;12.27;11.17;;;1.30;99.90;;;;;;5075483;28;20634;-63
2022/04/01 05:25:17;;;;;;;12.67;10.70;;;1.30;99.90;;;;;;5075112;28;20181;-63
2022/04/01 05:27:48;;;;;;;13.30;12.00;;;1.30;99.90;;;;;;5066469;28;20204;-63
2022/04/01 05:30:20;;;;;;;11.90;10.80;;;1.30;99.90;;;;;;5075253;28;20553;-63
2022/04/01 05:33:09;;;;;;;12.07;10.97;;;1.20;99.90;;;;;;5075150;28;20154;-63
2022/04/01 05:35:37;;;;;;;12.90;11.60;;;1.20;99.90;;;;;;5075484;28;20666;-63
2022/04/01 05:38:04;;;;;;;12.40;11.30;;;1.20;99.90;;;;;;5073952;28;20216;-63
2022/04/01 05:40:31;;;;;;;13.67;12.10;;;1.20;99.90;;;;;;5074774;28;20280;-63
2022/04/01 05:42:59;;;;;;;12.30;11.13;;;1.20;99.90;;;;;;5075964;28;20185;-63
2022/04/01 05:45:29;;;;;;;13.73;12.47;;;1.30;99.90;;;;;;5075177;28;20177;-63
2022/04/01 05:47:57;;;;;;;12.90;11.60;;;1.30;99.90;;;;;;5074832;28;20225;-63
2022/04/01 05:50:23;;;;;;;13.27;11.87;;;1.30;99.90;;;;;;5075067;28;20622;-62
2022/04/01 05:52:52;;;;;;;12.73;11.53;;;1.30;99.90;;;;;;5074942;28;20184;-63
2022/04/01 05:55:23;;;;;;;13.80;12.43;;;1.30;99.90;;;;;;5074263;28;20661;-63
2022/04/01 05:57:49;;;;;;;15.13;12.03;;;1.30;99.90;;;;;;5065732;28;20255;-63
2022/04/01 06:00:15;;;;;;;14.03;12.67;;;1.20;99.90;;;;;;5074758;28;20170;-62
2022/04/01 06:02:55;;;;;;;12.67;11.43;;;1.20;99.90;;;;;;5074683;28;20170;-63
2022/04/01 06:05:42;;;;;;;12.50;11.30;;;1.20;99.90;;;;;;5076082;28;20544;-63
2022/04/01 06:08:44;;;;;;;11.80;10.70;;;1.20;99.90;;;;;;5076919;28;20200;-63
2022/04/01 06:11:16;;;;;;;12.47;11.27;;;1.20;99.90;;;;;;5075172;28;20307;-62
2022/04/01 06:14:02;;;;;;;11.57;10.57;;;1.20;99.90;;;;;;5074770;28;20626;-63
2022/04/01 06:16:57;;;;;;;10.60;9.70;;;1.20;99.90;;;;;;5075850;28;20213;-63
2022/04/01 06:19:56;;;;;;;13.27;9.77;;;1.20;99.90;;;;;;5075112;28;20185;-62
2022/04/01 06:22:27;;;;;;;10.60;9.60;;;1.20;99.90;;;;;;5062544;28;20178;-63
2022/04/01 06:25:13;;;;;;;10.00;9.10;;;1.20;99.90;;;;;;5074689;28;20171;-63
2022/04/01 06:27:54;;;;;;;11.40;10.30;;;1.20;99.90;;;;;;5065363;28;20634;-63
2022/04/01 06:30:21;;;;;;;11.87;10.77;;;1.30;99.90;;;;;;5074547;28;20161;-63
2022/04/01 06:32:49;;;;;;;10.37;9.47;;;1.30;99.90;;;;;;5074032;28;20212;-64
2022/04/01 06:35:28;;;;;;;11.43;10.20;;;1.30;99.90;;;;;;5072567;28;20201;-62
2022/04/01 06:38:06;;;;;;;10.23;9.17;;;1.30;99.90;;;;;;5073934;28;20193;-63
2022/04/01 06:40:47;;;;;;;10.77;9.67;;;1.30;99.90;;;;;;5073590;28;20189;-62
2022/04/01 06:43:13;;;;;;;10.60;9.63;;;1.30;99.90;;;;;;5073806;28;20237;-64
2022/04/01 06:45:42;;;;;;;9.87;8.90;;;1.30;99.90;;;;;;5073663;28;20192;-63
2022/04/01 06:48:08;;;;;;;10.80;9.80;;;1.30;99.90;;;;;;5073544;28;20625;-62
2022/04/01 06:50:34;;;;;;;11.10;10.07;;;1.30;99.90;;;;;;5073933;28;20266;-62
2022/04/01 06:53:00;;;;;;;10.93;9.83;;;1.30;99.90;;;;;;5073603;28;20189;-62
2022/04/01 06:55:26;;;;;;;11.03;9.93;;;1.40;99.90;;;;;;5071955;28;20235;-62
2022/04/01 06:57:52;;;;;;;10.10;9.20;;;1.40;99.90;;;;;;5063343;28;20678;-62
2022/04/01 07:00:19;;;;;;;9.67;8.83;;;1.40;99.90;;;;;;5073715;28;20178;-62
2022/04/01 07:02:46;;;;;;;11.50;9.97;;;1.30;99.90;;;;;;5073911;28;20178;-62
2022/04/01 07:05:12;;;;;;;11.10;10.00;;;1.30;99.90;;;;;;5073344;28;20177;-61
2022/04/01 07:07:41;;;;;;;10.17;9.27;;;1.30;99.90;;;;;;5073246;28;20190;-62
2022/04/01 07:10:10;;;;;;;9.30;8.50;;;1.30;99.90;;;;;;5073066;28;20204;-63
2022/04/01 07:12:37;;;;;;;9.70;8.83;;;1.30;99.90;;;;;;5073409;28;20234;-62
2022/04/01 07:15:03;;;;;;;10.90;9.80;;;1.40;99.90;;;;;;5071937;28;20268;-62
2022/04/01 07:17:29;;;;;;;11.97;10.10;;;1.40;99.90;;;;;;5073225;28;20583;-62
2022/04/01 07:19:55;;;;;;;9.60;8.70;;;1.30;99.90;;;;;;5073271;28;20177;-62
2022/04/01 07:22:21;;;;;;;9.60;8.77;;;1.40;99.90;;;;;;5073301;28;20173;-63
2022/04/01 07:24:46;;;;;;;10.00;9.10;;;1.30;99.90;;;;;;5071676;28;20524;-62
2022/04/01 07:27:12;;;;;;;9.70;8.80;;;1.30;99.90;;;;;;5064320;28;20209;-62
2022/04/01 07:29:38;;;;;;;10.17;9.07;;;1.30;99.90;;;;;;5073427;28;20622;-61
2022/04/01 07:34:50;;;;;;;10.90;9.80;;;1.40;99.90;;;;;;5073680;28;20180;-62
2022/04/01 07:37:20;;;;;;;10.37;9.40;;;1.40;99.90;;;;;;5073450;28;20204;-62
2022/04/01 07:39:46;;;;;;;10.07;9.20;;;1.50;99.90;;;;;;5072884;28;20176;-62
2022/04/01 07:42:11;;;;;;;9.93;9.03;;;1.50;99.90;;;;;;5073168;28;20260;-62
2022/04/01 07:44:37;;;;;;;10.00;9.00;;;1.50;99.90;;;;;;5075863;28;20162;-62
2022/04/01 07:47:06;;;;;;;10.33;9.23;;;1.50;99.90;;;;;;5076809;28;20193;-63
2022/04/01 07:49:32;;;;;;;18.53;15.33;;;1.50;99.90;;;;;;5077184;28;20174;-62
2022/04/01 07:51:57;;;;;;;13.10;11.70;;;1.50;99.90;;;;;;5076843;28;20177;-62
2022/04/01 07:54:23;;;;;;;21.13;18.37;;;1.50;99.90;;;;;;5077147;28;20186;-63
2022/04/01 07:56:49;;;;;;;10.63;9.60;;;1.50;99.90;;;;;;5068030;28;20627;-62
2022/04/01 07:59:15;;;;;;;11.50;10.50;;;1.60;99.90;;;;;;5076685;28;20174;-62
2022/04/01 08:01:41;;;;;;;12.43;11.30;;;1.60;99.90;;;;;;5076897;28;20166;-63
2022/04/01 08:04:07;;;;;;;10.20;9.07;;;1.60;99.90;;;;;;5076920;28;20253;-62
2022/04/01 08:06:33;;;;;;;15.20;13.67;;;1.50;99.90;;;;;;5076673;28;20255;-62
2022/04/01 08:08:59;;;;;;;37.73;28.00;;;1.60;99.90;;;;;;5076576;28;20178;-63
2022/04/01 08:11:28;;;;;;;18.07;13.50;;;1.60;99.90;;;;;;5076211;28;20201;-62
2022/04/01 08:13:55;;;;;;;36.73;26.03;;;1.50;99.90;;;;;;5076452;28;20174;-62
2022/04/01 08:16:22;;;;;;;11.93;10.70;;;1.50;99.90;;;;;;5076191;28;20287;-62
2022/04/01 08:18:48;;;;;;;11.10;10.00;;;1.40;99.90;;;;;;5076541;28;20176;-62
2022/04/01 08:21:15;;;;;;;10.60;9.70;;;1.30;99.90;;;;;;5076349;28;20169;-63
2022/04/01 08:23:41;;;;;;;9.97;9.13;;;1.40;99.90;;;;;;5076319;28;20174;-63
2022/04/01 08:26:07;;;;;;;9.50;8.60;;;1.40;99.90;;;;;;5071589;28;20213;-62
2022/04/01 08:28:34;;;;;;;9.60;8.60;;;1.40;99.90;;;;;;5071978;28;20186;-61
2022/04/01 08:31:00;;;;;;;9.43;8.63;;;1.30;99.90;;;;;;5076093;28;20174;-62
2022/04/01 08:33:26;;;;;;;9.67;8.77;;;1.30;99.90;;;;;;5076086;28;20733;-62
2022/04/01 08:35:53;;;;;;;9.73;8.93;;;1.40;99.90;;;;;;5076287;28;20206;-62
2022/04/01 08:38:18;;;;;;;10.13;9.23;;;1.50;99.90;;;;;;5076190;28;20658;-61
2022/04/01 08:40:45;;;;;;;9.47;8.53;;;1.30;99.90;;;;;;5075677;28;20213;-61
2022/04/01 08:43:11;;;;;;;9.33;8.53;;;1.40;99.90;;;;;;5076209;28;20178;-62
2022/04/01 08:45:38;;;;;;;9.77;8.83;;;1.40;99.90;;;;;;5075858;28;20216;-62
2022/04/01 08:48:07;;;;;;;10.03;9.13;;;1.40;99.90;;;;;;5075733;28;20244;-62
2022/04/01 08:50:33;;;;;;;10.37;8.73;;;1.30;99.90;;;;;;5075843;28;20170;-62
2022/04/01 08:53:00;;;;;;;10.00;9.10;;;1.40;99.90;;;;;;5075799;28;20580;-62
2022/04/01 08:55:27;;;;;;;10.40;9.30;;;1.40;99.90;;;;;;5075078;28;20677;-62
2022/04/01 08:57:52;;;;;;;10.23;9.33;;;1.40;99.90;;;;;;5066972;28;20198;-61
2022/04/01 09:00:18;;;;;;;11.00;9.23;;;1.50;99.90;;;;;;5075967;28;20169;-62
2022/04/01 09:02:52;;;;;;;11.67;9.60;;;1.50;99.90;;;;;;5074442;28;20727;-62
2022/04/01 09:05:20;;;;;;;10.40;9.30;;;1.50;99.90;;;;;;5074273;28;20166;-61
2022/04/01 09:07:47;;;;;;;10.27;9.47;;;1.60;99.90;;;;;;5075630;28;20193;-62
2022/04/01 09:10:12;;;;;;;11.70;9.60;;;1.60;99.90;;;;;;5074996;28;20280;-63
2022/04/01 09:12:49;;;;;;;10.00;9.03;;;1.70;99.90;;;;;;5075572;28;20214;-61
2022/04/01 09:15:15;;;;;;;9.40;8.50;;;1.70;99.90;;;;;;5075460;28;20189;-61
2022/04/01 09:17:46;;;;;;;10.10;9.20;;;1.70;99.90;;;;;;5075239;28;20190;-62
2022/04/01 09:20:12;;;;;;;9.57;8.77;;;1.80;99.90;;;;;;5074149;28;20245;-62
2022/04/01 09:22:39;;;;;;;10.53;9.43;;;1.80;99.90;;;;;;5075412;28;20166;-62
2022/04/01 09:25:11;;;;;;;10.27;9.27;;;1.80;99.90;;;;;;5073627;28;20178;-62
2022/04/01 09:27:39;;;;;;;10.23;8.87;;;1.80;99.90;;;;;;5066222;28;20198;-62
2022/04/01 09:30:07;;;;;;;10.30;9.30;;;1.90;99.90;;;;;;5075372;28;20257;-62
2022/04/01 09:32:37;;;;;;;9.87;8.90;;;2.00;99.90;;;;;;5075638;28;20174;-62
2022/04/01 09:35:03;;;;;;;13.87;9.80;;;2.10;99.90;;;;;;5074901;28;20166;-62
2022/04/01 09:37:47;;;;;;;9.93;8.97;;;2.20;99.90;;;;;;5074792;28;20264;-62
2022/04/01 09:40:14;;;;;;;9.90;9.00;;;2.20;99.90;;;;;;5074632;28;20169;-62
2022/04/01 09:42:47;;;;;;;9.63;8.67;;;2.20;99.90;;;;;;5074752;28;20272;-62
2022/04/01 09:45:18;;;;;;;9.60;8.70;;;2.10;99.90;;;;;;5075323;28;20603;-62
2022/04/01 09:47:45;;;;;;;9.90;9.00;;;2.10;99.90;;;;;;5074606;28;20214;-62
2022/04/01 09:50:17;;;;;;;9.23;8.43;;;2.10;99.90;;;;;;5074526;28;20162;-62
2022/04/01 09:52:43;;;;;;;9.90;9.10;;;2.20;99.90;;;;;;5074851;28;20150;-63
2022/04/01 09:55:09;;;;;;;11.13;10.03;;;2.20;99.90;;;;;;5074270;28;20174;-62
2022/04/01 09:57:35;;;;;;;9.80;8.93;;;2.30;99.90;;;;;;5065653;28;20224;-62
2022/04/01 10:00:03;;;;;;;10.80;9.03;;;2.30;99.90;;;;;;5074838;28;20583;-62
2022/04/01 10:02:30;;;;;;;10.57;8.43;;;2.20;99.90;;;;;;5075228;28;20547;-62
2022/04/01 10:04:58;;;;;;;10.33;9.43;;;2.20;99.90;;;;;;5074354;28;20191;-62
2022/04/01 10:07:26;;;;;;;9.40;8.60;;;2.20;99.90;;;;;;5072416;28;20642;-62
2022/04/01 10:09:55;;;;;;;9.90;8.90;;;2.20;99.90;;;;;;5074364;28;20264;-64
2022/04/01 10:12:25;;;;;;;9.37;8.53;;;2.20;99.90;;;;;;5075178;28;20180;-63
2022/04/01 10:14:56;;;;;;;9.33;8.43;;;2.30;99.90;;;;;;5074875;28;20672;-64
2022/04/01 10:17:23;;;;;;;9.60;8.70;;;2.30;99.90;;;;;;5073100;28;20205;-62
2022/04/01 10:19:49;;;;;;;10.27;9.20;;;2.40;99.90;;;;;;5074480;28;20173;-62
2022/04/01 10:22:16;;;;;;;9.60;8.70;;;2.30;99.90;;;;;;5074445;28;20223;-63
2022/04/01 10:24:54;;;;;;;9.73;8.90;;;2.20;99.90;;;;;;5074032;28;20319;-64
2022/04/01 10:27:37;;;;;;;9.50;8.70;;;2.10;99.90;;;;;;5063850;28;20574;-63
2022/04/01 10:30:05;;;;;;;9.77;8.73;;;1.90;99.90;;;;;;5074112;28;20158;-64
2022/04/01 10:32:40;;;;;;;10.73;9.70;;;1.80;99.90;;;;;;5073944;28;20208;-64
2022/04/01 10:35:08;;;;;;;10.23;9.23;;;1.80;99.90;;;;;;5074019;28;20216;-65
2022/04/01 10:37:35;;;;;;;10.90;9.87;;;1.70;99.90;;;;;;5073860;28;20200;-63
2022/04/01 10:40:17;;;;;;;10.20;9.30;;;1.70;99.90;;;;;;5073561;28;20177;-64
2022/04/01 10:42:45;;;;;;;10.30;9.47;;;1.60;99.90;;;;;;5074137;28;20174;-63
2022/04/01 10:45:17;;;;;;;10.00;9.03;;;1.50;99.90;;;;;;5074054;28;20163;-62
2022/04/01 10:53:37;;;;;;;12.90;10.27;;;1.50;99.90;;;;;;5074071;28;20223;-64
2022/04/01 10:56:21;;;;;;;11.97;9.90;;;1.40;99.90;;;;;;5069627;28;20248;-65
2022/04/01 10:59:16;;;;;;;12.63;11.33;;;1.40;99.90;;;;;;5071272;28;20177;-61
2022/04/01 11:02:03;;;;;;;11.30;10.30;;;1.40;99.90;;;;;;5073612;28;20154;-62
2022/04/01 11:04:31;;;;;;;12.50;10.13;;;1.50;99.90;;;;;;5074038;28;20681;-62
2022/04/01 11:07:14;;;;;;;11.83;10.63;;;1.50;99.90;;;;;;5073345;28;20197;-62
2022/04/01 11:09:46;;;;;;;11.20;10.03;;;1.50;99.90;;;;;;5072110;28;20194;-62
2022/04/01 11:12:15;;;;;;;11.93;10.67;;;1.60;99.90;;;;;;5073271;28;20174;-62
2022/04/01 11:17:29;;;;;;;10.80;9.73;;;1.60;99.90;;;;;;5074754;28;20292;-62
2022/04/01 11:20:14;;;;;;;20.13;16.10;;;1.60;99.90;;;;;;5080111;28;20245;-61
2022/04/01 11:22:46;;;;;;;17.80;13.57;;;1.60;99.90;;;;;;5080238;28;20150;-62
2022/04/01 11:25:22;;;;;;;14.33;12.77;;;1.60;99.90;;;;;;5079753;28;20169;-62
2022/04/01 11:28:02;;;;;;;13.63;10.80;;;1.60;99.90;;;;;;5071123;28;20205;-62
2022/04/01 11:30:30;;;;;;;11.57;10.47;;;1.60;99.90;;;;;;5079903;28;20159;-62
2022/04/01 11:33:00;;;;;;;12.43;11.13;;;1.60;99.90;;;;;;5080066;28;20165;-62
2022/04/01 11:35:31;;;;;;;12.03;10.93;;;1.60;99.90;;;;;;5080494;28;20189;-62
2022/04/01 11:37:59;;;;;;;14.20;11.23;;;1.60;99.90;;;;;;5079828;28;20572;-62
2022/04/01 11:40:27;;;;;;;13.13;11.83;;;1.50;99.90;;;;;;5079654;28;20552;-62
2022/04/01 11:43:04;;;;;;;12.43;11.13;;;1.50;99.90;;;;;;5079908;28;20669;-62
2022/04/01 11:45:34;;;;;;;11.93;10.47;;;1.60;99.90;;;;;;5080050;28;20244;-65
2022/04/01 11:48:02;;;;;;;11.77;10.20;;;1.60;99.90;;;;;;5079878;28;20239;-62
2022/04/01 11:50:27;;;;;;;13.33;10.40;;;1.50;99.90;;;;;;5080116;28;20184;-61
2022/04/01 11:52:57;;;;;;;12.07;10.63;;;1.60;99.90;;;;;;5080236;28;20154;-62
2022/04/01 11:55:26;;;;;;;14.00;11.17;;;1.60;99.90;;;;;;5078181;28;20631;-62
2022/04/01 11:57:54;;;;;;;12.93;10.03;;;1.50;99.90;;;;;;5070915;28;20684;-61
2022/04/01 12:00:24;;;;;;;11.37;10.37;;;1.50;99.90;;;;;;5079636;28;20180;-61
2022/04/01 12:02:51;;;;;;;12.43;10.87;;;1.50;99.90;;;;;;5079653;28;20165;-61
2022/04/01 12:05:18;;;;;;;13.67;10.33;;;1.50;99.90;;;;;;5080617;28;20554;-61
2022/04/01 12:10:37;;;;;;;11.37;10.17;;;1.50;99.90;;;;;;5079395;28;20215;-63
2022/04/01 12:13:09;;;;;;;11.10;9.97;;;1.40;99.90;;;;;;5080322;28;20261;-62
2022/04/01 12:15:38;;;;;;;12.40;10.33;;;1.50;99.90;;;;;;5080135;28;20181;-61
2022/04/01 12:18:14;;;;;;;10.97;9.80;;;1.50;99.90;;;;;;5079794;28;20235;-62
2022/04/01 12:20:55;;;;;;;10.83;9.80;;;1.50;99.90;;;;;;5080180;28;20161;-62
2022/04/01 12:23:22;;;;;;;11.93;10.13;;;1.40;99.90;;;;;;5079566;28;20250;-63
2022/04/01 12:25:50;;;;;;;11.63;10.10;;;1.40;99.90;;;;;;5077499;28;20166;-62
2022/04/01 12:28:19;;;;;;;12.83;10.13;;;1.30;99.90;;;;;;5072758;28;20208;-61
2022/04/01 12:30:47;;;;;;;11.03;9.57;;;1.30;99.90;;;;;;5075765;28;20170;-61
2022/04/01 12:33:24;;;;;;;11.57;10.10;;;1.40;99.90;;;;;;5076442;28;20182;-62
2022/04/01 12:35:56;;;;;;;11.07;9.90;;;1.40;99.90;;;;;;5076381;28;20258;-61
2022/04/01 12:38:23;;;;;;;11.80;10.50;;;1.40;99.90;;;;;;5076046;28;20189;-62
2022/04/01 12:40:51;;;;;;;12.93;10.63;;;1.40;99.90;;;;;;5075897;28;20564;-62
2022/04/01 12:43:36;;;;;;;12.50;11.20;;;1.40;99.90;;;;;;5076704;28;20170;-62
2022/04/01 12:46:04;;;;;;;12.37;11.13;;;1.40;99.90;;;;;;5075791;28;20201;-62
2022/04/01 12:48:38;;;;;;;14.70;11.17;;;1.40;99.90;;;;;;5075917;28;20174;-62
2022/04/01 12:51:04;;;;;;;12.03;10.93;;;1.40;99.90;;;;;;5076092;28;20212;-62
2022/04/01 12:53:30;;;;;;;14.93;10.97;;;1.40;99.90;;;;;;5076543;28;20163;-62
2022/04/01 12:56:31;;;;;;;12.30;11.00;;;1.40;99.90;;;;;;5072673;28;20194;-62
2022/04/01 12:59:07;;;;;;;11.07;9.97;;;1.30;99.90;;;;;;5072904;28;20219;-62
2022/04/01 13:01:36;;;;;;;11.83;10.50;;;1.30;99.90;;;;;;5075249;28;20187;-62
2022/04/01 13:04:02;;;;;;;15.77;10.80;;;1.40;99.90;;;;;;5075827;28;20223;-62
2022/04/01 13:06:29;;;;;;;11.90;10.60;;;1.40;99.90;;;;;;5075556;28;20208;-62
2022/04/01 13:08:59;;;;;;;11.60;10.43;;;1.40;99.90;;;;;;5075704;28;20673;-63
2022/04/01 13:11:41;;;;;;;11.10;10.00;;;1.30;99.90;;;;;;5075439;28;20550;-62
2022/04/01 13:14:26;;;;;;;12.53;10.73;;;1.30;99.90;;;;;;5075613;28;20174;-62